Terminal Aerodrome Forecast
Issued by NWS

Home | Current Version | Previous Version | Text Only | Print | Product List | Glossary On
Versions: 1 2 3 4 5 6 7 8 9 10 11 12 13 14 15 16 17 18 19 20 21 22 23 24 25 26 27 28 29 30 31 32 33 34 35 36 37 38 39 40 41 42 43 44 45 46 47 48 49 50
000
FTUS45 KBOI 241513 AAC
TAFMYL
TAF AMD
KMYL 241513Z 2415/2512 VRB03KT P6SM SCT050
      TEMPO 2415/2416 1/2SM FZFG VV001
     FM241600 VRB05KT P6SM BKN200
     FM250500 VRB05KT 5SM -SN OVC030
     FM250700 VRB04KT 3/4SM -SN BR OVC005=

USA.gov is the U.S. government's official web portal to all federal, state and local government web resources and services.